Time;durP1;ratioP1;P1;durP2;ratioP2;P2;SDS_P1;SDS_P2;PMS_P1;PMS_P2;Temp;Humidity;BMP_temperature;BMP_pressure;BME280_temperature;BME280_humidity;BME280_pressure;Samples;Min_cycle;Max_cycle;Signal;HPM_P1;HPM_P2
2022/01/16 00:00:16;;;;;;;58.78;24.88;;;;;;;2.52;78.25;100390.59;341143;28;1255;-64
2022/01/16 00:00:28;;;;;;;57.05;24.60;;;;;;;2.41;78.64;100389.59;340920;28;1608;-63
2022/01/16 00:00:52;;;;;;;61.15;26.20;;;;;;;2.39;79.01;100384.47;340762;28;1050;-64
2022/01/16 00:01:35;;;;;;;58.80;24.58;;;;;;;2.43;78.66;100381.94;342779;28;1488;-66
2022/01/16 00:04:09;;;;;;;60.22;27.88;;;;;;;2.97;76.50;100375.69;342175;28;2189;-64
2022/01/16 00:04:24;;;;;;;60.35;26.20;;;;;;;2.96;76.37;100373.97;341775;28;1701;-66
2022/01/16 00:04:36;;;;;;;59.00;25.60;;;;;;;2.98;76.35;100372.28;342344;28;1174;-65
2022/01/16 00:04:48;;;;;;;55.80;26.38;;;;;;;3.04;76.03;100369.78;341948;28;1031;-64
2022/01/16 00:05:00;;;;;;;61.42;27.63;;;;;;;3.05;76.20;100371.47;342037;28;1779;-64
2022/01/16 00:05:12;;;;;;;62.33;26.50;;;;;;;3.01;76.29;100374.88;342281;28;1054;-64
2022/01/16 00:05:27;;;;;;;58.10;24.50;;;;;;;2.94;76.24;100376.53;341720;28;2118;-64
2022/01/16 00:05:39;;;;;;;51.30;23.77;;;;;;;2.91;76.29;100373.91;341210;28;1084;-64
2022/01/16 00:05:51;;;;;;;53.15;24.90;;;;;;;2.92;76.46;100377.38;340972;28;1007;-64
2022/01/16 00:06:03;;;;;;;55.42;25.05;;;;;;;2.90;75.94;100373.91;341439;28;2193;-64
2022/01/16 00:06:17;;;;;;;54.80;24.25;;;;;;;2.86;76.33;100377.28;342561;28;1300;-64
2022/01/16 00:06:42;;;;;;;51.97;22.40;;;;;;;2.82;76.86;100381.53;341885;28;2138;-65
2022/01/16 00:06:54;;;;;;;63.22;26.25;;;;;;;2.88;76.45;100386.75;342237;28;1282;-65
2022/01/16 00:07:06;;;;;;;69.72;27.10;;;;;;;2.90;75.68;100389.31;342102;28;1063;-64
2022/01/16 00:07:18;;;;;;;69.15;25.92;;;;;;;2.92;75.35;100392.78;341829;28;1891;-66
2022/01/16 00:07:30;;;;;;;63.38;24.35;;;;;;;2.96;74.77;100391.97;342993;28;2369;-65
2022/01/16 00:07:42;;;;;;;56.60;24.90;;;;;;;2.99;74.58;100387.69;342498;28;1259;-63
2022/01/16 00:07:55;;;;;;;53.03;24.83;;;;;;;3.00;74.74;100391.16;342497;28;1329;-65
2022/01/16 00:08:12;;;;;;;53.60;23.95;;;;;;;3.00;74.47;100392.00;340867;28;1039;-64
2022/01/16 00:08:24;;;;;;;59.08;24.15;;;;;;;2.89;73.41;100392.72;340909;28;1071;-64
2022/01/16 00:08:36;;;;;;;63.20;26.08;;;;;;;2.89;74.39;100382.47;340863;28;1047;-66
2022/01/16 00:08:48;;;;;;;59.03;25.88;;;;;;;2.91;74.61;100385.91;341346;28;2303;-65
2022/01/16 00:09:00;;;;;;;56.20;24.33;;;;;;;2.89;74.66;100385.88;342770;28;2237;-64
2022/01/16 00:09:13;;;;;;;55.38;23.42;;;;;;;2.94;75.30;100385.94;342237;28;2119;-66
2022/01/16 00:09:25;;;;;;;54.10;24.88;;;;;;;2.93;75.63;100379.06;343231;28;1254;-66
2022/01/16 00:09:37;;;;;;;52.65;25.48;;;;;;;2.94;75.81;100375.69;343494;28;1041;-64
2022/01/16 00:09:49;;;;;;;55.58;25.00;;;;;;;2.94;75.46;100376.53;343038;28;1596;-66
2022/01/16 00:10:03;;;;;;;57.47;24.40;;;;;;;2.88;75.74;100380.72;343562;28;1301;-64
2022/01/16 00:10:19;;;;;;;57.25;24.08;;;;;;;2.95;76.04;100382.50;343808;28;1163;-64
2022/01/16 00:10:31;;;;;;;56.75;24.45;;;;;;;2.85;76.03;100385.84;342900;28;1874;-66
2022/01/16 00:10:43;;;;;;;57.40;24.77;;;;;;;2.92;76.37;100385.06;343607;28;1027;-65
2022/01/16 00:10:55;;;;;;;56.42;23.63;;;;;;;2.86;76.40;100378.16;343489;28;1016;-62
2022/01/16 00:11:07;;;;;;;55.05;22.42;;;;;;;2.89;76.09;100387.59;343470;28;1195;-63
2022/01/16 00:11:19;;;;;;;59.55;23.00;;;;;;;2.92;75.56;100393.63;343414;28;1299;-65
2022/01/16 00:11:32;;;;;;;58.66;24.30;;;;;;;2.94;74.75;100391.09;343665;28;1132;-64
2022/01/16 00:11:46;;;;;;;55.95;24.13;;;;;;;2.96;74.79;100389.38;343848;28;1023;-65
2022/01/16 00:12:04;;;;;;;59.08;24.50;;;;;;;2.88;74.43;100385.84;342542;28;1137;-65
2022/01/16 00:12:18;;;;;;;56.88;23.42;;;;;;;2.77;75.62;100386.59;342721;28;1070;-64
2022/01/16 00:12:30;;;;;;;52.65;23.27;;;;;;;2.78;75.45;100395.19;342102;28;2179;-64
2022/01/16 00:12:47;;;;;;;53.22;24.83;;;;;;;2.80;75.86;100381.50;342474;28;1236;-64
2022/01/16 00:13:00;;;;;;;53.95;24.27;;;;;;;2.68;76.86;100390.81;342694;28;1337;-64
2022/01/16 00:13:13;;;;;;;52.47;23.08;;;;;;;2.62;77.17;100393.25;342551;28;1064;-65
2022/01/16 00:13:25;;;;;;;55.88;24.38;;;;;;;2.65;77.41;100390.75;342393;28;1043;-64
2022/01/16 00:13:37;;;;;;;58.95;25.98;;;;;;;2.56;77.39;100388.94;342550;28;1499;-65
2022/01/16 00:13:49;;;;;;;58.80;24.88;;;;;;;2.62;77.78;100389.03;342578;28;1204;-64
2022/01/16 00:14:02;;;;;;;58.40;24.00;;;;;;;2.61;77.79;100394.97;342527;28;1220;-64
2022/01/16 00:14:14;;;;;;;55.35;23.55;;;;;;;2.68;78.12;100393.38;341872;28;1834;-64
2022/01/16 00:14:28;;;;;;;52.10;23.55;;;;;;;2.69;77.41;100395.94;341657;28;1952;-64
2022/01/16 00:14:40;;;;;;;56.40;24.50;;;;;;;2.77;77.28;100396.88;342696;28;1151;-66
2022/01/16 00:14:52;;;;;;;59.30;24.10;;;;;;;2.74;77.51;100398.56;342478;28;1074;-66
2022/01/16 00:15:05;;;;;;;58.08;23.05;;;;;;;2.69;77.58;100395.94;342633;28;1190;-65
2022/01/16 00:15:19;;;;;;;53.40;22.33;;;;;;;2.70;77.52;100397.66;342366;28;1177;-64
2022/01/16 00:15:31;;;;;;;56.97;23.65;;;;;;;2.75;77.29;100395.13;342309;28;1062;-65
2022/01/16 00:15:46;;;;;;;57.58;24.58;;;;;;;2.82;77.39;100391.81;342505;28;1090;-65
2022/01/16 00:15:58;;;;;;;56.53;24.60;;;;;;;2.85;77.40;100385.84;342378;28;1277;-64
2022/01/16 00:16:15;;;;;;;55.53;23.52;;;;;;;2.88;77.38;100386.75;341349;28;2007;-65
2022/01/16 00:16:28;;;;;;;58.20;23.52;;;;;;;2.88;76.77;100380.72;342011;28;2159;-65
2022/01/16 00:16:40;;;;;;;58.92;24.70;;;;;;;2.92;76.89;100382.50;342649;28;1539;-66
2022/01/16 00:16:52;;;;;;;54.13;24.10;;;;;;;2.89;76.62;100382.47;342561;28;1056;-65
2022/01/16 00:17:05;;;;;;;48.72;22.75;;;;;;;2.96;76.53;100379.13;342432;28;1517;-65
2022/01/16 00:17:22;;;;;;;51.18;22.96;;;;;;;2.97;76.83;100380.81;342747;28;1109;-65
2022/01/16 00:17:41;;;;;;;57.15;23.98;;;;;;;3.00;76.64;100376.59;342275;28;1083;-65
2022/01/16 00:18:08;;;;;;;52.13;22.65;;;;;;;3.05;76.46;100379.19;341607;28;1704;-66
2022/01/16 00:18:23;;;;;;;45.45;20.77;;;;;;;3.14;76.18;100389.56;341474;28;2402;-66
2022/01/16 00:18:49;;;;;;;48.30;21.75;;;;;;;3.16;75.98;100382.72;342272;28;1096;-65
2022/01/16 00:19:02;;;;;;;49.08;21.00;;;;;;;3.14;76.08;100384.44;342181;28;1188;-65
2022/01/16 00:19:14;;;;;;;52.90;22.20;;;;;;;3.13;75.67;100382.69;341994;28;1749;-67
2022/01/16 00:19:26;;;;;;;58.05;24.33;;;;;;;3.15;74.98;100387.84;342330;28;1798;-65
2022/01/16 00:19:38;;;;;;;60.65;24.95;;;;;;;3.15;74.03;100386.13;343754;28;1055;-66
2022/01/16 00:19:51;;;;;;;54.85;23.70;;;;;;;3.14;74.35;100389.56;343331;28;2210;-65
2022/01/16 00:20:03;;;;;;;51.83;22.35;;;;;;;3.09;73.90;100390.38;339887;28;4593;-65
2022/01/16 00:20:15;;;;;;;52.08;22.60;;;;;;;3.13;74.38;100390.41;340908;29;5266;-65
2022/01/16 00:20:27;;;;;;;54.38;23.58;;;;;;;3.12;73.94;100390.38;341989;28;1770;-66
2022/01/16 00:20:39;;;;;;;56.90;24.05;;;;;;;3.10;73.71;100392.94;341687;28;5068;-66
2022/01/16 00:20:52;;;;;;;56.15;23.35;;;;;;;3.06;73.63;100385.19;342281;28;1129;-65
2022/01/16 00:21:04;;;;;;;52.88;22.05;;;;;;;3.09;74.12;100396.34;341843;28;1404;-65
2022/01/16 00:21:18;;;;;;;52.70;22.98;;;;;;;3.10;73.57;100403.22;342268;28;1567;-65
2022/01/16 00:21:40;;;;;;;55.38;24.67;;;;;;;3.11;73.94;100397.22;341608;28;1802;-66
2022/01/16 00:21:53;;;;;;;49.40;22.80;;;;;;;3.16;73.88;100397.28;342422;28;1075;-65
2022/01/16 00:22:12;;;;;;;44.03;20.63;;;;;;;3.17;74.15;100394.72;342186;28;1257;-65
2022/01/16 00:22:27;;;;;;;50.03;23.45;;;;;;;3.22;74.20;100391.31;342453;28;1064;-66
2022/01/16 00:22:41;;;;;;;58.15;25.60;;;;;;;3.22;74.04;100389.66;342385;28;1198;-66
2022/01/16 00:22:53;;;;;;;56.10;24.23;;;;;;;3.23;73.85;100387.94;341821;28;2105;-66
2022/01/16 00:23:09;;;;;;;53.05;22.48;;;;;;;3.23;74.29;100387.94;342848;28;1868;-65
2022/01/16 00:23:27;;;;;;;55.88;22.33;;;;;;;3.24;74.28;100389.63;341384;28;1223;-65
2022/01/16 00:23:39;;;;;;;56.47;23.60;;;;;;;3.25;74.25;100391.38;341999;28;1951;-65
2022/01/16 00:23:52;;;;;;;55.67;24.88;;;;;;;3.24;74.50;100397.34;341578;28;1976;-65
2022/01/16 00:24:05;;;;;;;53.50;23.98;;;;;;;3.20;74.78;100399.03;342398;28;1519;-66
2022/01/16 00:24:17;;;;;;;50.33;22.65;;;;;;;3.16;74.95;100398.16;342596;28;1357;-65
2022/01/16 00:24:29;;;;;;;49.53;23.13;;;;;;;3.16;74.98;100393.00;342296;28;1055;-65
2022/01/16 00:24:41;;;;;;;50.65;24.35;;;;;;;3.11;75.36;100391.25;341972;28;1813;-64
2022/01/16 00:24:53;;;;;;;49.75;22.98;;;;;;;3.03;75.29;100393.72;342251;28;1046;-65
2022/01/16 00:25:05;;;;;;;50.78;22.50;;;;;;;3.06;75.44;100390.31;342655;28;1341;-65
2022/01/16 00:25:17;;;;;;;55.17;23.25;;;;;;;3.11;75.36;100394.66;342590;28;1078;-65
2022/01/16 00:25:29;;;;;;;57.53;24.73;;;;;;;3.17;75.44;100389.56;342494;28;1815;-66
2022/01/16 00:25:42;;;;;;;56.08;24.60;;;;;;;3.15;75.53;100386.13;343062;28;1958;-65
2022/01/16 00:25:56;;;;;;;52.83;23.15;;;;;;;3.01;75.92;100382.56;341469;28;1997;-65
2022/01/16 00:26:08;;;;;;;52.83;21.92;;;;;;;2.96;76.09;100381.69;343780;28;1057;-65
2022/01/16 00:26:22;;;;;;;55.08;23.48;;;;;;;2.96;76.47;100376.56;343388;28;1160;-65
2022/01/16 00:26:35;;;;;;;55.83;24.65;;;;;;;2.93;76.22;100379.06;343362;28;1036;-65
2022/01/16 00:26:47;;;;;;;55.65;24.25;;;;;;;2.87;76.62;100376.44;343581;28;1063;-65
2022/01/16 00:26:59;;;;;;;53.13;22.88;;;;;;;2.87;76.79;100371.31;343308;28;1488;-65
2022/01/16 00:27:11;;;;;;;52.88;22.42;;;;;;;2.82;77.01;100375.53;343503;28;1056;-65
2022/01/16 00:27:23;;;;;;;57.63;24.42;;;;;;;2.73;77.04;100379.72;343516;28;1283;-65
2022/01/16 00:27:35;;;;;;;60.65;25.73;;;;;;;2.77;76.92;100375.47;343173;28;1945;-64
2022/01/16 00:27:48;;;;;;;55.47;24.50;;;;;;;2.83;76.68;100377.25;342195;28;1312;-65
2022/01/16 00:28:00;;;;;;;50.53;23.35;;;;;;;2.84;76.95;100376.41;342718;28;2313;-66
2022/01/16 00:28:13;;;;;;;57.03;25.33;;;;;;;2.80;77.00;100373.81;342777;28;1176;-66
2022/01/16 00:28:26;;;;;;;58.13;25.48;;;;;;;2.83;77.01;100378.09;342518;28;1072;-65
2022/01/16 00:28:38;;;;;;;58.42;24.17;;;;;;;2.80;77.01;100375.53;342526;28;1126;-66
2022/01/16 00:28:51;;;;;;;55.88;23.05;;;;;;;2.82;76.93;100370.38;342436;28;1374;-65
2022/01/16 00:29:08;;;;;;;53.45;23.45;;;;;;;2.88;76.86;100360.19;342490;28;1479;-65
2022/01/16 00:29:20;;;;;;;53.15;23.55;;;;;;;2.91;76.45;100360.22;342632;28;1087;-66
2022/01/16 00:29:32;;;;;;;54.75;23.25;;;;;;;2.85;76.71;100361.00;341987;28;2154;-66
2022/01/16 00:29:44;;;;;;;52.47;22.88;;;;;;;2.90;77.11;100363.66;342477;28;1225;-66
2022/01/16 00:29:57;;;;;;;52.15;23.15;;;;;;;2.97;76.82;100365.41;342504;28;1660;-65
2022/01/16 00:30:10;;;;;;;51.03;24.10;;;;;;;3.05;76.30;100368.06;342039;28;1469;-65
2022/01/16 00:30:22;;;;;;;49.92;23.35;;;;;;;3.10;76.66;100367.25;342336;28;1012;-66
2022/01/16 00:30:34;;;;;;;48.13;21.73;;;;;;;3.13;76.34;100362.13;342602;28;1067;-66
2022/01/16 00:30:47;;;;;;;50.58;21.30;;;;;;;3.15;76.02;100367.28;342523;28;1015;-66
2022/01/16 00:30:59;;;;;;;50.38;21.42;;;;;;;3.22;75.89;100360.50;343035;28;1516;-65
2022/01/16 00:31:12;;;;;;;50.20;22.27;;;;;;;3.27;76.02;100361.41;342385;28;2362;-65
2022/01/16 00:31:24;;;;;;;48.95;22.77;;;;;;;3.29;75.91;100362.28;342654;28;1596;-65
2022/01/16 00:31:38;;;;;;;49.78;22.77;;;;;;;3.30;75.43;100364.00;342433;28;1079;-65
2022/01/16 00:31:50;;;;;;;48.80;22.38;;;;;;;3.33;75.59;100364.03;342347;28;1946;-65
2022/01/16 00:32:02;;;;;;;51.25;23.40;;;;;;;3.33;75.36;100364.03;342150;28;1559;-66
2022/01/16 00:32:14;;;;;;;50.90;23.33;;;;;;;3.37;75.40;100365.78;342403;28;1462;-65
2022/01/16 00:32:26;;;;;;;50.40;21.67;;;;;;;3.34;75.32;100358.03;342684;28;1144;-65
2022/01/16 00:32:38;;;;;;;48.83;20.83;;;;;;;3.33;75.97;100364.03;342542;28;1050;-65
2022/01/16 00:32:50;;;;;;;53.20;22.42;;;;;;;3.33;75.16;100364.03;342705;28;1062;-66
2022/01/16 00:33:02;;;;;;;53.72;23.45;;;;;;;3.31;75.55;100358.03;343233;28;1485;-65
2022/01/16 00:33:15;;;;;;;51.75;22.30;;;;;;;3.26;75.07;100360.56;343043;28;1962;-65
2022/01/16 00:33:27;;;;;;;50.50;21.45;;;;;;;3.25;75.20;100356.25;342582;28;1051;-65
2022/01/16 00:33:42;;;;;;;51.58;22.10;;;;;;;3.30;75.34;100364.00;342675;28;1070;-65
2022/01/16 00:33:54;;;;;;;53.97;23.30;;;;;;;3.34;75.21;100366.63;342549;28;1007;-66
2022/01/16 00:34:07;;;;;;;55.17;23.90;;;;;;;3.31;75.32;100360.59;342358;28;2496;-65
2022/01/16 00:34:19;;;;;;;53.85;23.30;;;;;;;3.30;75.08;100358.84;342227;28;1041;-66
2022/01/16 00:34:31;;;;;;;52.58;23.13;;;;;;;3.28;75.51;100357.97;342306;28;1102;-65
2022/01/16 00:34:43;;;;;;;54.85;22.73;;;;;;;3.26;75.28;100362.25;342222;28;1756;-65
2022/01/16 00:34:57;;;;;;;56.63;22.98;;;;;;;3.27;75.17;100364.84;341921;28;1952;-65
2022/01/16 00:35:11;;;;;;;60.20;23.50;;;;;;;3.23;75.63;100367.38;342760;28;1347;-65
2022/01/16 00:35:23;;;;;;;60.25;23.38;;;;;;;3.07;75.38;100362.09;342662;28;1122;-65
2022/01/16 00:35:38;;;;;;;57.65;23.58;;;;;;;3.06;76.01;100364.63;342513;28;1071;-66
2022/01/16 00:35:50;;;;;;;57.00;24.33;;;;;;;3.07;76.17;100362.09;342568;28;1043;-66
2022/01/16 00:36:02;;;;;;;57.92;24.38;;;;;;;3.01;76.36;100362.03;342392;28;1217;-66
2022/01/16 00:36:17;;;;;;;58.58;23.25;;;;;;;3.01;76.32;100364.59;343618;28;1154;-65
2022/01/16 00:36:29;;;;;;;59.85;22.98;;;;;;;3.03;75.50;100360.34;342436;28;1806;-65
2022/01/16 00:36:41;;;;;;;64.78;24.52;;;;;;;3.02;75.56;100366.34;343903;28;1821;-65
2022/01/16 00:36:53;;;;;;;69.35;25.77;;;;;;;2.93;75.29;100361.09;343516;28;1164;-65
2022/01/16 00:37:05;;;;;;;63.28;24.65;;;;;;;2.99;75.58;100363.72;342071;28;1193;-65
2022/01/16 00:37:17;;;;;;;59.22;22.88;;;;;;;3.02;75.48;100366.34;342252;28;1051;-65
2022/01/16 00:37:29;;;;;;;50.28;20.73;;;;;;;3.06;75.44;100365.50;340668;29;2151;-66
2022/01/16 00:37:42;;;;;;;48.47;21.52;;;;;;;3.10;75.85;100367.25;339708;29;1066;-65
2022/01/16 00:37:54;;;;;;;56.92;24.25;;;;;;;3.11;75.40;100368.97;339541;29;1054;-66
2022/01/16 00:38:06;;;;;;;68.28;25.17;;;;;;;3.09;75.96;100362.97;340878;29;1384;-66
2022/01/16 00:38:18;;;;;;;67.35;24.05;;;;;;;3.10;75.88;100357.00;338433;28;2893;-65
2022/01/16 00:38:31;;;;;;;63.92;22.90;;;;;;;3.08;75.60;100368.97;340287;29;4671;-65
2022/01/16 00:38:45;;;;;;;59.60;23.45;;;;;;;3.09;75.53;100364.69;341016;29;1480;-66
2022/01/16 00:38:57;;;;;;;57.97;24.23;;;;;;;3.09;75.88;100364.69;340831;28;4636;-66
2022/01/16 00:39:10;;;;;;;58.72;23.65;;;;;;;3.07;75.49;100367.22;343023;28;1294;-65
2022/01/16 00:39:22;;;;;;;59.67;23.35;;;;;;;3.11;76.13;100362.97;343433;28;1043;-65
2022/01/16 00:39:34;;;;;;;60.90;23.70;;;;;;;3.13;75.75;100367.28;342281;28;2086;-66
2022/01/16 00:39:46;;;;;;;63.50;25.13;;;;;;;3.12;76.23;100365.56;342376;28;1763;-66
2022/01/16 00:39:58;;;;;;;58.97;23.30;;;;;;;3.09;76.13;100360.38;342535;28;1291;-66
2022/01/16 00:40:10;;;;;;;57.75;22.42;;;;;;;3.07;75.93;100367.22;341617;28;2278;-65
2022/01/16 00:40:23;;;;;;;62.97;23.70;;;;;;;3.09;76.01;100369.81;342366;28;2806;-65
2022/01/16 00:40:36;;;;;;;65.82;25.38;;;;;;;3.09;76.01;100362.97;342221;28;1020;-65
2022/01/16 00:40:47;;;;;;;62.33;23.95;;;;;;;3.02;76.28;100358.63;342058;28;1109;-65
2022/01/16 00:41:00;;;;;;;55.45;22.67;;;;;;;3.06;76.21;100360.38;343057;28;1177;-65
2022/01/16 00:41:13;;;;;;;59.67;23.23;;;;;;;3.04;76.55;100358.63;343652;28;1083;-66
2022/01/16 00:41:26;;;;;;;65.38;24.70;;;;;;;3.06;76.39;100365.50;343631;28;1199;-66
2022/01/16 00:41:38;;;;;;;57.72;23.58;;;;;;;3.02;76.58;100368.91;342455;28;1740;-65
2022/01/16 00:41:50;;;;;;;54.78;23.02;;;;;;;3.03;76.52;100365.47;342681;28;1235;-65
2022/01/16 00:42:02;;;;;;;58.58;23.65;;;;;;;2.96;76.85;100368.84;342246;28;2113;-66
2022/01/16 00:42:14;;;;;;;62.90;25.00;;;;;;;3.00;76.51;100365.47;342578;28;1377;-65
2022/01/16 00:42:26;;;;;;;59.15;23.60;;;;;;;2.92;76.59;100367.09;342528;28;1031;-65
2022/01/16 00:42:38;;;;;;;61.08;22.75;;;;;;;2.94;76.88;100371.38;342635;28;1055;-65
2022/01/16 00:42:51;;;;;;;64.25;23.08;;;;;;;2.91;77.11;100368.78;342694;28;1270;-65
2022/01/16 00:43:03;;;;;;;67.85;23.88;;;;;;;2.92;77.08;100370.50;342531;28;1538;-65
2022/01/16 00:43:16;;;;;;;65.45;24.33;;;;;;;2.91;76.94;100370.50;341930;28;2051;-65
2022/01/16 00:43:30;;;;;;;61.88;24.63;;;;;;;2.85;77.25;100371.28;342394;28;1078;-65
2022/01/16 00:43:45;;;;;;;59.80;23.48;;;;;;;2.80;77.09;100373.81;342707;28;1063;-66
2022/01/16 00:43:58;;;;;;;63.55;22.75;;;;;;;2.76;77.21;100377.19;342006;28;2006;-65
2022/01/16 00:44:10;;;;;;;66.45;24.08;;;;;;;2.79;77.19;100377.22;342465;28;1071;-66
2022/01/16 00:44:22;;;;;;;67.18;24.60;;;;;;;2.73;77.34;100382.28;342162;28;4476;-66
2022/01/16 00:44:34;;;;;;;64.85;24.88;;;;;;;2.71;77.33;100383.13;342389;28;1302;-66
2022/01/16 00:44:46;;;;;;;62.83;23.55;;;;;;;2.68;77.39;100388.22;342036;28;1080;-66
2022/01/16 00:44:58;;;;;;;64.15;23.60;;;;;;;2.74;77.38;100384.00;342239;28;1767;-65
2022/01/16 00:45:11;;;;;;;65.82;24.52;;;;;;;2.78;77.40;100390.91;342392;28;1181;-66
2022/01/16 00:45:24;;;;;;;65.10;24.98;;;;;;;2.82;77.33;100393.50;342577;28;1051;-66
2022/01/16 00:45:36;;;;;;;64.32;24.27;;;;;;;2.78;77.42;100396.03;341631;28;2122;-66
2022/01/16 00:45:48;;;;;;;58.78;22.88;;;;;;;2.78;77.72;100390.91;342530;28;1207;-65
2022/01/16 00:46:00;;;;;;;57.47;23.42;;;;;;;2.73;77.61;100392.53;342407;28;1569;-65
2022/01/16 00:46:12;;;;;;;58.47;24.42;;;;;;;2.79;77.94;100395.19;342065;28;1786;-66
2022/01/16 00:46:24;;;;;;;60.67;25.42;;;;;;;2.77;77.58;100399.44;342423;28;1120;-66
2022/01/16 00:46:36;;;;;;;61.78;24.38;;;;;;;2.78;77.44;100408.03;342705;28;1903;-66
2022/01/16 00:46:48;;;;;;;60.00;22.92;;;;;;;2.74;77.67;100396.84;342316;28;1657;-66
2022/01/16 00:47:00;;;;;;;63.83;24.00;;;;;;;2.78;77.45;100390.91;342355;28;1620;-65
2022/01/16 00:47:12;;;;;;;68.22;25.25;;;;;;;2.77;77.84;100389.16;343770;28;1047;-65
2022/01/16 00:47:24;;;;;;;65.65;25.40;;;;;;;2.79;77.46;100392.63;343558;28;1211;-66
2022/01/16 00:47:36;;;;;;;63.78;24.90;;;;;;;2.79;77.22;100387.47;343109;28;2023;-66
2022/01/16 00:47:48;;;;;;;59.30;23.90;;;;;;;2.80;77.27;100384.09;344777;28;1042;-65
2022/01/16 00:48:05;;;;;;;62.83;24.02;;;;;;;2.74;77.58;100378.88;343933;28;2228;-65
2022/01/16 00:48:17;;;;;;;64.18;25.60;;;;;;;2.79;77.17;100377.22;343620;28;1304;-65
2022/01/16 00:48:29;;;;;;;60.40;25.63;;;;;;;2.85;77.43;100375.56;343545;28;1179;-66
2022/01/16 00:48:41;;;;;;;61.63;24.30;;;;;;;2.86;77.13;100372.13;343666;28;1302;-66
2022/01/16 00:48:53;;;;;;;63.42;23.60;;;;;;;2.85;77.13;100367.88;343499;28;1173;-65
2022/01/16 00:49:07;;;;;;;61.33;24.15;;;;;;;2.93;77.14;100358.53;341332;28;1031;-66
2022/01/16 00:49:19;;;;;;;59.97;24.88;;;;;;;2.98;77.12;100362.88;342876;28;1999;-66
2022/01/16 00:49:34;;;;;;;58.97;24.13;;;;;;;3.01;76.69;100359.47;343870;28;2353;-65
2022/01/16 00:49:46;;;;;;;55.08;22.73;;;;;;;3.03;77.18;100360.34;343471;28;2077;-66
2022/01/16 00:49:58;;;;;;;52.92;22.02;;;;;;;3.09;76.55;100360.38;343655;28;1756;-66
2022/01/16 00:50:10;;;;;;;54.47;22.80;;;;;;;3.14;76.63;100361.31;341748;28;2088;-66
2022/01/16 00:50:22;;;;;;;58.13;23.90;;;;;;;3.15;76.38;100363.00;343484;28;2068;-66
2022/01/16 00:50:35;;;;;;;58.40;23.40;;;;;;;3.22;76.61;100370.78;343159;28;2015;-65
2022/01/16 00:50:47;;;;;;;58.15;23.63;;;;;;;3.24;76.42;100364.81;342097;28;2175;-66
2022/01/16 00:51:00;;;;;;;60.65;24.25;;;;;;;3.28;76.15;100369.13;341879;28;1318;-66
2022/01/16 00:51:13;;;;;;;63.00;24.20;;;;;;;3.30;75.84;100369.13;342119;28;1322;-65
2022/01/16 00:51:26;;;;;;;60.38;23.02;;;;;;;3.30;75.77;100370.00;343056;28;2019;-66
2022/01/16 00:51:38;;;;;;;57.17;22.73;;;;;;;3.29;76.22;100372.56;342090;28;2061;-65
2022/01/16 00:51:50;;;;;;;60.03;24.10;;;;;;;3.32;75.95;100372.56;342064;28;2124;-65
2022/01/16 00:52:02;;;;;;;58.58;24.48;;;;;;;3.30;75.81;100370.00;342384;28;1217;-65
2022/01/16 00:52:14;;;;;;;62.28;24.35;;;;;;;3.25;76.07;100370.81;342448;28;1411;-66
2022/01/16 00:52:26;;;;;;;61.90;23.27;;;;;;;3.14;75.94;100373.28;342675;28;1073;-65
2022/01/16 00:52:39;;;;;;;61.10;23.38;;;;;;;3.14;76.59;100369.00;342647;28;1269;-66
2022/01/16 00:52:52;;;;;;;63.03;24.58;;;;;;;3.17;76.54;100375.88;342697;28;1046;-65
2022/01/16 00:53:04;;;;;;;61.72;24.50;;;;;;;3.09;76.46;100369.81;343499;28;1476;-66
2022/01/16 00:53:16;;;;;;;60.95;23.13;;;;;;;3.12;76.66;100370.72;342597;28;2310;-65
2022/01/16 00:53:28;;;;;;;62.83;23.33;;;;;;;3.13;76.54;100362.13;342206;28;1577;-65
2022/01/16 00:53:42;;;;;;;76.30;25.58;;;;;;;3.12;76.12;100367.25;341960;28;1833;-65
2022/01/16 00:53:54;;;;;;;72.43;25.73;;;;;;;3.17;76.19;100363.88;341993;28;1959;-65
2022/01/16 00:54:06;;;;;;;58.83;23.98;;;;;;;3.17;76.08;100369.03;341138;28;1047;-65
2022/01/16 00:54:19;;;;;;;59.75;23.15;;;;;;;3.18;76.05;100368.19;341328;28;1099;-65
2022/01/16 00:54:32;;;;;;;63.97;24.00;;;;;;;3.22;76.26;100365.63;341421;28;1259;-66
2022/01/16 00:54:47;;;;;;;68.25;25.40;;;;;;;3.22;76.14;100365.63;341129;29;1323;-66
2022/01/16 00:55:03;;;;;;;72.50;24.30;;;;;;;3.20;76.39;100374.22;341816;28;1550;-65
2022/01/16 00:55:15;;;;;;;74.57;24.75;;;;;;;3.19;76.42;100382.75;342279;28;967;-65
2022/01/16 00:55:27;;;;;;;70.82;25.08;;;;;;;3.18;76.46;100381.03;342288;28;2008;-66
2022/01/16 00:55:41;;;;;;;69.05;25.27;;;;;;;3.12;76.23;100383.56;342940;28;3525;-66
2022/01/16 00:55:53;;;;;;;61.95;23.85;;;;;;;3.11;76.67;100379.25;342572;28;1103;-65
2022/01/16 00:56:06;;;;;;;69.97;24.38;;;;;;;3.16;76.39;100381.88;342183;28;1730;-65
2022/01/16 00:56:18;;;;;;;76.53;25.90;;;;;;;3.14;76.12;100380.97;341343;28;1035;-66
2022/01/16 00:56:30;;;;;;;75.78;25.98;;;;;;;3.06;76.10;100395.44;342046;28;1861;-66
2022/01/16 00:56:42;;;;;;;61.78;23.52;;;;;;;3.08;76.41;100394.66;342507;28;1088;-66
2022/01/16 00:56:54;;;;;;;63.58;23.25;;;;;;;3.09;76.61;100393.78;342628;28;1170;-65
2022/01/16 00:57:06;;;;;;;65.88;24.45;;;;;;;3.10;76.71;100392.94;342574;28;1187;-65
2022/01/16 00:57:18;;;;;;;72.88;26.00;;;;;;;3.11;76.87;100392.09;342163;28;1031;-66
2022/01/16 00:57:31;;;;;;;82.18;27.38;;;;;;;3.13;76.33;100392.13;341686;28;2304;-65
2022/01/16 00:57:43;;;;;;;76.38;26.30;;;;;;;3.15;75.88;100390.41;343306;28;2093;-65
2022/01/16 00:57:55;;;;;;;66.55;24.33;;;;;;;3.12;76.13;100391.25;342037;28;2206;-65
2022/01/16 00:58:11;;;;;;;64.80;23.40;;;;;;;3.11;76.52;100388.66;343158;28;2039;-65
2022/01/16 00:58:23;;;;;;;68.97;24.70;;;;;;;3.15;76.01;100388.69;342202;28;2170;-66
2022/01/16 00:58:35;;;;;;;80.18;27.02;;;;;;;3.14;76.56;100389.56;342308;28;1062;-66
2022/01/16 00:58:47;;;;;;;85.13;27.10;;;;;;;3.13;75.84;100382.69;342278;28;1156;-65
2022/01/16 00:58:59;;;;;;;80.63;25.98;;;;;;;3.14;75.64;100392.13;341777;28;2118;-66
2022/01/16 00:59:11;;;;;;;70.05;25.08;;;;;;;3.13;75.91;100382.69;342239;28;1960;-66
2022/01/16 00:59:23;;;;;;;64.88;24.98;;;;;;;3.00;75.77;100381.72;342152;28;2284;-66
2022/01/16 00:59:36;;;;;;;63.42;24.95;;;;;;;2.99;76.34;100374.00;342132;28;2005;-66
2022/01/16 00:59:48;;;;;;;66.40;24.15;;;;;;;3.03;76.51;100375.75;342975;28;2169;-65
2022/01/16 01:00:07;;;;;;;66.80;23.15;;;;;;;3.04;76.75;100377.47;342350;28;2285;-65
2022/01/16 01:00:20;;;;;;;81.57;25.75;;;;;;;2.98;76.63;100378.28;342400;28;1074;-65
2022/01/16 01:00:33;;;;;;;85.30;27.23;;;;;;;2.95;76.86;100383.38;342387;28;1216;-66
2022/01/16 01:00:47;;;;;;;72.70;25.20;;;;;;;2.95;76.66;100377.38;342296;28;1171;-65
2022/01/16 01:00:59;;;;;;;65.35;23.58;;;;;;;2.99;76.46;100374.00;342093;28;2150;-65
2022/01/16 01:01:12;;;;;;;68.47;24.35;;;;;;;3.00;77.08;100371.44;341503;28;2278;-66
2022/01/16 01:01:24;;;;;;;76.50;26.35;;;;;;;3.07;76.68;100377.50;341568;28;2231;-66
2022/01/16 01:01:37;;;;;;;81.30;26.63;;;;;;;3.10;76.16;100382.69;342111;28;1343;-65
2022/01/16 01:01:49;;;;;;;76.60;24.95;;;;;;;3.10;76.65;100382.69;342064;28;1047;-65
2022/01/16 01:02:01;;;;;;;78.72;25.30;;;;;;;3.15;76.21;100385.28;342868;28;1677;-66
2022/01/16 01:02:13;;;;;;;76.50;26.15;;;;;;;3.18;76.51;100385.31;343418;28;1297;-64
2022/01/16 01:02:25;;;;;;;75.70;26.55;;;;;;;3.20;76.43;100397.31;343450;28;1099;-65
2022/01/16 01:02:38;;;;;;;65.78;24.02;;;;;;;3.21;76.36;100400.75;343445;28;1237;-65
2022/01/16 01:02:53;;;;;;;69.15;23.33;;;;;;;3.23;76.14;100393.06;341581;28;1796;-65
2022/01/16 01:03:06;;;;;;;71.82;25.60;;;;;;;3.27;75.94;100392.25;340893;28;2239;-65
2022/01/16 01:03:19;;;;;;;66.57;26.38;;;;;;;3.28;75.89;100392.25;342323;28;2151;-65
2022/01/16 01:03:31;;;;;;;60.75;25.05;;;;;;;3.28;75.88;100399.09;342487;28;1095;-65
2022/01/16 01:03:44;;;;;;;63.55;24.63;;;;;;;3.26;75.94;100401.66;342347;28;2204;-65
2022/01/16 01:03:59;;;;;;;62.42;24.58;;;;;;;3.29;75.90;100398.25;343510;28;1250;-65
2022/01/16 01:04:11;;;;;;;64.60;25.67;;;;;;;3.26;76.08;100393.97;343612;28;1066;-65